sensor_id;sensor_type;location;lat;lon;timestamp;temperature;humidity
5459;DHT22;2752;49.992;8.422;2023-05-23T00:02:25;19.20;7.60
5459;DHT22;2752;49.992;8.422;2023-05-23T00:04:53;19.10;8.50
5459;DHT22;2752;49.992;8.422;2023-05-23T00:07:22;19.20;6.90
5459;DHT22;2752;49.992;8.422;2023-05-23T00:09:49;19.20;6.90
5459;DHT22;2752;49.992;8.422;2023-05-23T00:12:16;19.20;7.20
5459;DHT22;2752;49.992;8.422;2023-05-23T00:14:43;19.20;6.90
5459;DHT22;2752;49.992;8.422;2023-05-23T00:17:10;19.20;6.30
5459;DHT22;2752;49.992;8.422;2023-05-23T00:19:37;19.20;6.00
5459;DHT22;2752;49.992;8.422;2023-05-23T00:22:04;19.20;5.40
5459;DHT22;2752;49.992;8.422;2023-05-23T00:24:30;19.20;5.20
5459;DHT22;2752;49.992;8.422;2023-05-23T00:26:57;19.10;5.00
5459;DHT22;2752;49.992;8.422;2023-05-23T00:29:24;19.10;4.80
5459;DHT22;2752;49.992;8.422;2023-05-23T00:31:51;19.10;5.50
5459;DHT22;2752;49.992;8.422;2023-05-23T00:34:18;19.10;5.80
5459;DHT22;2752;49.992;8.422;2023-05-23T00:36:45;19.10;6.10
5459;DHT22;2752;49.992;8.422;2023-05-23T00:39:14;19.10;6.90
5459;DHT22;2752;49.992;8.422;2023-05-23T00:41:44;19.00;8.10
5459;DHT22;2752;49.992;8.422;2023-05-23T00:44:11;19.00;9.50
5459;DHT22;2752;49.992;8.422;2023-05-23T00:46:37;19.00;9.80
5459;DHT22;2752;49.992;8.422;2023-05-23T00:49:05;19.00;10.40
5459;DHT22;2752;49.992;8.422;2023-05-23T00:51:32;19.00;10.70
5459;DHT22;2752;49.992;8.422;2023-05-23T00:54:01;19.20;6.60
5459;DHT22;2752;49.992;8.422;2023-05-23T00:56:30;19.30;3.30
5459;DHT22;2752;49.992;8.422;2023-05-23T00:58:57;19.20;2.70
5459;DHT22;2752;49.992;8.422;2023-05-23T01:01:25;19.30;3.10
5459;DHT22;2752;49.992;8.422;2023-05-23T01:03:52;19.40;1.60
5459;DHT22;2752;49.992;8.422;2023-05-23T01:06:20;19.20;2.70
5459;DHT22;2752;49.992;8.422;2023-05-23T01:08:47;19.20;4.00
5459;DHT22;2752;49.992;8.422;2023-05-23T01:11:21;19.30;4.80
5459;DHT22;2752;49.992;8.422;2023-05-23T01:13:53;19.30;3.90
5459;DHT22;2752;49.992;8.422;2023-05-23T01:16:29;19.20;3.80
5459;DHT22;2752;49.992;8.422;2023-05-23T01:19:13;19.10;4.70
5459;DHT22;2752;49.992;8.422;2023-05-23T01:21:45;19.10;3.30
5459;DHT22;2752;49.992;8.422;2023-05-23T01:24:31;19.00;3.90
5459;DHT22;2752;49.992;8.422;2023-05-23T01:27:07;19.00;3.30
5459;DHT22;2752;49.992;8.422;2023-05-23T01:29:39;18.90;3.90
5459;DHT22;2752;49.992;8.422;2023-05-23T01:32:10;18.90;5.10
5459;DHT22;2752;49.992;8.422;2023-05-23T01:34:38;18.90;3.30
5459;DHT22;2752;49.992;8.422;2023-05-23T01:37:07;18.80;3.20
5459;DHT22;2752;49.992;8.422;2023-05-23T01:39:34;18.70;4.70
5459;DHT22;2752;49.992;8.422;2023-05-23T01:42:01;18.70;4.00
5459;DHT22;2752;49.992;8.422;2023-05-23T01:44:28;18.70;3.00
5459;DHT22;2752;49.992;8.422;2023-05-23T01:46:56;18.70;2.70
5459;DHT22;2752;49.992;8.422;2023-05-23T01:49:23;18.40;2.70
5459;DHT22;2752;49.992;8.422;2023-05-23T01:51:50;18.60;1.20
5459;DHT22;2752;49.992;8.422;2023-05-23T01:54:17;18.50;1.70
5459;DHT22;2752;49.992;8.422;2023-05-23T01:56:45;18.50;3.00
5459;DHT22;2752;49.992;8.422;2023-05-23T01:59:12;18.40;3.00
5459;DHT22;2752;49.992;8.422;2023-05-23T02:01:39;18.30;2.10
5459;DHT22;2752;49.992;8.422;2023-05-23T02:04:07;18.40;1.00
5459;DHT22;2752;49.992;8.422;2023-05-23T02:06:34;18.30;1.00
5459;DHT22;2752;49.992;8.422;2023-05-23T02:09:01;18.20;1.50
5459;DHT22;2752;49.992;8.422;2023-05-23T02:11:28;18.20;1.90
5459;DHT22;2752;49.992;8.422;2023-05-23T02:13:54;18.20;1.90
5459;DHT22;2752;49.992;8.422;2023-05-23T02:16:21;18.20;1.00
5459;DHT22;2752;49.992;8.422;2023-05-23T02:18:50;18.10;1.60
5459;DHT22;2752;49.992;8.422;2023-05-23T02:21:21;18.10;1.00
5459;DHT22;2752;49.992;8.422;2023-05-23T02:23:48;18.00;1.00
5459;DHT22;2752;49.992;8.422;2023-05-23T02:26:15;18.00;1.00
5459;DHT22;2752;49.992;8.422;2023-05-23T02:28:42;17.90;2.80
5459;DHT22;2752;49.992;8.422;2023-05-23T02:31:09;17.70;5.00
5459;DHT22;2752;49.992;8.422;2023-05-23T02:33:36;17.70;5.60
5459;DHT22;2752;49.992;8.422;2023-05-23T02:36:03;17.60;6.30
5459;DHT22;2752;49.992;8.422;2023-05-23T02:38:31;17.50;6.70
5459;DHT22;2752;49.992;8.422;2023-05-23T02:40:58;17.40;6.20
5459;DHT22;2752;49.992;8.422;2023-05-23T02:43:25;17.40;5.90
5459;DHT22;2752;49.992;8.422;2023-05-23T02:45:51;17.40;2.80
5459;DHT22;2752;49.992;8.422;2023-05-23T02:48:18;17.30;4.10
5459;DHT22;2752;49.992;8.422;2023-05-23T02:50:45;17.20;4.70
5459;DHT22;2752;49.992;8.422;2023-05-23T02:53:12;17.20;5.60
5459;DHT22;2752;49.992;8.422;2023-05-23T02:55:40;17.30;3.60
5459;DHT22;2752;49.992;8.422;2023-05-23T02:58:07;17.30;1.60
5459;DHT22;2752;49.992;8.422;2023-05-23T03:00:34;17.20;1.40
5459;DHT22;2752;49.992;8.422;2023-05-23T03:03:01;17.20;1.00
5459;DHT22;2752;49.992;8.422;2023-05-23T03:05:28;17.20;2.10
5459;DHT22;2752;49.992;8.422;2023-05-23T03:07:54;17.20;1.90
5459;DHT22;2752;49.992;8.422;2023-05-23T03:10:22;17.20;1.90
5459;DHT22;2752;49.992;8.422;2023-05-23T03:12:50;17.00;3.90
5459;DHT22;2752;49.992;8.422;2023-05-23T03:15:16;16.90;6.10
5459;DHT22;2752;49.992;8.422;2023-05-23T03:17:43;16.80;8.10
5459;DHT22;2752;49.992;8.422;2023-05-23T03:20:10;16.80;8.70
5459;DHT22;2752;49.992;8.422;2023-05-23T03:22:37;16.80;9.50
5459;DHT22;2752;49.992;8.422;2023-05-23T03:25:04;16.70;11.50
5459;DHT22;2752;49.992;8.422;2023-05-23T03:27:31;16.60;13.80
5459;DHT22;2752;49.992;8.422;2023-05-23T03:29:59;16.60;16.90
5459;DHT22;2752;49.992;8.422;2023-05-23T03:32:26;16.60;14.40
5459;DHT22;2752;49.992;8.422;2023-05-23T03:34:53;16.60;13.60
5459;DHT22;2752;49.992;8.422;2023-05-23T03:37:19;16.70;8.80
5459;DHT22;2752;49.992;8.422;2023-05-23T03:39:46;16.70;5.70
5459;DHT22;2752;49.992;8.422;2023-05-23T03:42:12;16.60;2.00
5459;DHT22;2752;49.992;8.422;2023-05-23T03:44:39;16.50;2.40
5459;DHT22;2752;49.992;8.422;2023-05-23T03:47:07;16.10;2.90
5459;DHT22;2752;49.992;8.422;2023-05-23T03:49:34;16.40;2.60
5459;DHT22;2752;49.992;8.422;2023-05-23T03:52:01;16.40;2.80
5459;DHT22;2752;49.992;8.422;2023-05-23T03:54:28;16.40;3.10
5459;DHT22;2752;49.992;8.422;2023-05-23T03:56:54;16.40;3.70
5459;DHT22;2752;49.992;8.422;2023-05-23T03:59:21;16.50;4.30
5459;DHT22;2752;49.992;8.422;2023-05-23T04:01:47;16.50;2.60
5459;DHT22;2752;49.992;8.422;2023-05-23T04:04:15;16.50;1.90
5459;DHT22;2752;49.992;8.422;2023-05-23T04:06:42;16.60;1.90
5459;DHT22;2752;49.992;8.422;2023-05-23T04:09:09;16.60;1.00
5459;DHT22;2752;49.992;8.422;2023-05-23T04:11:36;16.60;1.00
5459;DHT22;2752;49.992;8.422;2023-05-23T04:14:03;16.50;1.00
5459;DHT22;2752;49.992;8.422;2023-05-23T04:16:29;16.60;1.00
5459;DHT22;2752;49.992;8.422;2023-05-23T04:18:57;16.40;1.00
5459;DHT22;2752;49.992;8.422;2023-05-23T04:21:25;16.40;1.00
5459;DHT22;2752;49.992;8.422;2023-05-23T04:23:52;16.50;1.00
5459;DHT22;2752;49.992;8.422;2023-05-23T04:26:19;16.50;1.00
5459;DHT22;2752;49.992;8.422;2023-05-23T04:28:45;16.50;1.00
5459;DHT22;2752;49.992;8.422;2023-05-23T04:31:13;16.50;1.00
5459;DHT22;2752;49.992;8.422;2023-05-23T04:33:39;16.50;1.00
5459;DHT22;2752;49.992;8.422;2023-05-23T04:36:07;16.50;1.00
5459;DHT22;2752;49.992;8.422;2023-05-23T04:38:36;16.50;1.00
5459;DHT22;2752;49.992;8.422;2023-05-23T04:41:03;16.60;1.00
5459;DHT22;2752;49.992;8.422;2023-05-23T04:43:30;16.70;1.00
5459;DHT22;2752;49.992;8.422;2023-05-23T04:45:58;16.60;1.00
5459;DHT22;2752;49.992;8.422;2023-05-23T04:48:24;16.60;1.00
5459;DHT22;2752;49.992;8.422;2023-05-23T04:50:52;16.60;1.00
5459;DHT22;2752;49.992;8.422;2023-05-23T04:53:20;16.70;1.00
5459;DHT22;2752;49.992;8.422;2023-05-23T04:55:48;16.60;1.00
5459;DHT22;2752;49.992;8.422;2023-05-23T04:58:15;16.60;1.00
5459;DHT22;2752;49.992;8.422;2023-05-23T05:00:41;16.60;1.00
5459;DHT22;2752;49.992;8.422;2023-05-23T05:03:08;16.50;1.00
5459;DHT22;2752;49.992;8.422;2023-05-23T05:05:36;16.40;1.00
5459;DHT22;2752;49.992;8.422;2023-05-23T05:08:03;16.40;1.00
5459;DHT22;2752;49.992;8.422;2023-05-23T05:10:30;16.20;1.00
5459;DHT22;2752;49.992;8.422;2023-05-23T05:12:58;16.50;1.00
5459;DHT22;2752;49.992;8.422;2023-05-23T05:15:25;16.60;1.00
5459;DHT22;2752;49.992;8.422;2023-05-23T05:17:52;16.70;1.00
5459;DHT22;2752;49.992;8.422;2023-05-23T05:20:18;16.70;1.00
5459;DHT22;2752;49.992;8.422;2023-05-23T05:22:46;16.70;1.00
5459;DHT22;2752;49.992;8.422;2023-05-23T05:25:13;16.60;1.00
5459;DHT22;2752;49.992;8.422;2023-05-23T05:27:39;16.70;1.00
5459;DHT22;2752;49.992;8.422;2023-05-23T05:30:08;16.80;1.00
5459;DHT22;2752;49.992;8.422;2023-05-23T05:32:35;16.80;1.00
5459;DHT22;2752;49.992;8.422;2023-05-23T05:35:02;16.90;1.00
5459;DHT22;2752;49.992;8.422;2023-05-23T05:37:29;16.90;1.00
5459;DHT22;2752;49.992;8.422;2023-05-23T05:39:55;16.90;1.00
5459;DHT22;2752;49.992;8.422;2023-05-23T05:42:23;17.10;1.00
5459;DHT22;2752;49.992;8.422;2023-05-23T05:44:50;17.20;1.00
5459;DHT22;2752;49.992;8.422;2023-05-23T05:47:18;17.10;1.00
5459;DHT22;2752;49.992;8.422;2023-05-23T05:49:44;17.10;1.00
5459;DHT22;2752;49.992;8.422;2023-05-23T05:52:11;17.10;1.00
5459;DHT22;2752;49.992;8.422;2023-05-23T05:54:38;17.10;1.00
5459;DHT22;2752;49.992;8.422;2023-05-23T05:57:04;17.10;1.00
5459;DHT22;2752;49.992;8.422;2023-05-23T05:59:31;16.90;1.00
5459;DHT22;2752;49.992;8.422;2023-05-23T06:01:58;16.90;1.00
5459;DHT22;2752;49.992;8.422;2023-05-23T06:04:26;16.90;1.00
5459;DHT22;2752;49.992;8.422;2023-05-23T06:06:53;16.90;1.00
5459;DHT22;2752;49.992;8.422;2023-05-23T06:09:19;16.90;1.00
5459;DHT22;2752;49.992;8.422;2023-05-23T06:11:46;17.00;1.00
5459;DHT22;2752;49.992;8.422;2023-05-23T06:14:13;17.10;1.00
5459;DHT22;2752;49.992;8.422;2023-05-23T06:16:39;17.10;1.00
5459;DHT22;2752;49.992;8.422;2023-05-23T06:19:06;17.00;1.00
5459;DHT22;2752;49.992;8.422;2023-05-23T06:21:34;16.90;1.00
5459;DHT22;2752;49.992;8.422;2023-05-23T06:24:01;16.90;1.00
5459;DHT22;2752;49.992;8.422;2023-05-23T06:26:28;17.00;1.00
5459;DHT22;2752;49.992;8.422;2023-05-23T06:28:54;17.00;1.00
5459;DHT22;2752;49.992;8.422;2023-05-23T06:31:21;17.00;1.00
5459;DHT22;2752;49.992;8.422;2023-05-23T06:33:48;17.00;1.00
5459;DHT22;2752;49.992;8.422;2023-05-23T06:36:15;17.00;1.00
5459;DHT22;2752;49.992;8.422;2023-05-23T06:38:43;17.10;1.00
5459;DHT22;2752;49.992;8.422;2023-05-23T06:41:10;17.20;1.00
5459;DHT22;2752;49.992;8.422;2023-05-23T06:43:36;17.20;1.00
5459;DHT22;2752;49.992;8.422;2023-05-23T06:46:03;17.10;1.00
5459;DHT22;2752;49.992;8.422;2023-05-23T06:48:31;17.10;1.00
5459;DHT22;2752;49.992;8.422;2023-05-23T06:50:57;17.30;1.00
5459;DHT22;2752;49.992;8.422;2023-05-23T06:53:24;17.10;1.00
5459;DHT22;2752;49.992;8.422;2023-05-23T06:55:52;17.10;1.00
5459;DHT22;2752;49.992;8.422;2023-05-23T06:58:20;17.10;1.00
5459;DHT22;2752;49.992;8.422;2023-05-23T07:00:49;17.00;1.00
5459;DHT22;2752;49.992;8.422;2023-05-23T07:03:16;17.10;1.00
5459;DHT22;2752;49.992;8.422;2023-05-23T07:05:42;16.80;1.00
5459;DHT22;2752;49.992;8.422;2023-05-23T07:08:09;17.00;1.00
5459;DHT22;2752;49.992;8.422;2023-05-23T07:10:36;17.00;1.00
5459;DHT22;2752;49.992;8.422;2023-05-23T07:13:06;17.00;1.00
5459;DHT22;2752;49.992;8.422;2023-05-23T07:15:33;16.90;1.00
5459;DHT22;2752;49.992;8.422;2023-05-23T07:18:00;16.90;1.00
5459;DHT22;2752;49.992;8.422;2023-05-23T07:20:27;16.90;1.00
5459;DHT22;2752;49.992;8.422;2023-05-23T07:22:53;17.00;1.00
5459;DHT22;2752;49.992;8.422;2023-05-23T07:25:21;17.00;1.00
5459;DHT22;2752;49.992;8.422;2023-05-23T07:27:49;17.00;1.00
5459;DHT22;2752;49.992;8.422;2023-05-23T07:30:18;17.10;1.00
5459;DHT22;2752;49.992;8.422;2023-05-23T07:32:45;17.50;1.00
5459;DHT22;2752;49.992;8.422;2023-05-23T07:35:12;17.80;1.00
5459;DHT22;2752;49.992;8.422;2023-05-23T07:37:39;18.20;1.00
5459;DHT22;2752;49.992;8.422;2023-05-23T07:40:06;18.30;1.00
5459;DHT22;2752;49.992;8.422;2023-05-23T07:42:34;18.40;1.00
5459;DHT22;2752;49.992;8.422;2023-05-23T07:45:01;18.50;1.00
5459;DHT22;2752;49.992;8.422;2023-05-23T07:47:29;18.60;1.00
5459;DHT22;2752;49.992;8.422;2023-05-23T07:49:56;18.50;1.00
5459;DHT22;2752;49.992;8.422;2023-05-23T07:52:23;18.30;1.00
5459;DHT22;2752;49.992;8.422;2023-05-23T07:54:50;18.10;1.00
5459;DHT22;2752;49.992;8.422;2023-05-23T07:57:16;18.00;1.00
5459;DHT22;2752;49.992;8.422;2023-05-23T07:59:43;18.00;1.00
5459;DHT22;2752;49.992;8.422;2023-05-23T08:02:09;18.00;1.00
5459;DHT22;2752;49.992;8.422;2023-05-23T08:04:37;18.10;1.00
5459;DHT22;2752;49.992;8.422;2023-05-23T08:07:05;17.90;1.00
5459;DHT22;2752;49.992;8.422;2023-05-23T08:09:32;17.90;1.00
5459;DHT22;2752;49.992;8.422;2023-05-23T08:11:59;18.00;1.00
5459;DHT22;2752;49.992;8.422;2023-05-23T08:14:26;18.20;1.00
5459;DHT22;2752;49.992;8.422;2023-05-23T08:16:52;18.20;1.00
5459;DHT22;2752;49.992;8.422;2023-05-23T08:19:19;18.40;1.00
5459;DHT22;2752;49.992;8.422;2023-05-23T08:21:47;18.60;1.00
5459;DHT22;2752;49.992;8.422;2023-05-23T08:24:14;18.90;1.00
5459;DHT22;2752;49.992;8.422;2023-05-23T08:26:40;19.00;1.00
5459;DHT22;2752;49.992;8.422;2023-05-23T08:29:07;19.00;1.00
5459;DHT22;2752;49.992;8.422;2023-05-23T08:31:34;19.30;1.00
5459;DHT22;2752;49.992;8.422;2023-05-23T08:34:01;19.00;1.00
5459;DHT22;2752;49.992;8.422;2023-05-23T08:36:28;18.80;1.00
5459;DHT22;2752;49.992;8.422;2023-05-23T08:38:56;18.60;1.00
5459;DHT22;2752;49.992;8.422;2023-05-23T08:41:23;18.50;1.00
5459;DHT22;2752;49.992;8.422;2023-05-23T08:43:50;18.30;1.00
5459;DHT22;2752;49.992;8.422;2023-05-23T08:46:17;18.30;1.00
5459;DHT22;2752;49.992;8.422;2023-05-23T08:48:50;18.30;1.00
5459;DHT22;2752;49.992;8.422;2023-05-23T08:51:17;18.50;1.00
5459;DHT22;2752;49.992;8.422;2023-05-23T08:53:45;18.70;1.00
5459;DHT22;2752;49.992;8.422;2023-05-23T08:56:15;18.70;1.00
5459;DHT22;2752;49.992;8.422;2023-05-23T08:58:42;18.80;1.00
5459;DHT22;2752;49.992;8.422;2023-05-23T09:01:09;18.80;1.00
5459;DHT22;2752;49.992;8.422;2023-05-23T09:03:36;18.70;1.00
5459;DHT22;2752;49.992;8.422;2023-05-23T09:06:05;18.70;1.00
5459;DHT22;2752;49.992;8.422;2023-05-23T09:08:32;18.70;1.00
5459;DHT22;2752;49.992;8.422;2023-05-23T09:10:59;18.50;1.00
5459;DHT22;2752;49.992;8.422;2023-05-23T09:13:28;18.50;1.00
5459;DHT22;2752;49.992;8.422;2023-05-23T09:15:56;18.40;1.00
5459;DHT22;2752;49.992;8.422;2023-05-23T09:18:24;18.40;1.00
5459;DHT22;2752;49.992;8.422;2023-05-23T09:20:51;18.40;1.00
5459;DHT22;2752;49.992;8.422;2023-05-23T09:23:18;18.30;1.00
5459;DHT22;2752;49.992;8.422;2023-05-23T09:25:45;18.30;1.00
5459;DHT22;2752;49.992;8.422;2023-05-23T09:28:12;18.30;1.00
5459;DHT22;2752;49.992;8.422;2023-05-23T09:30:40;18.30;1.00
5459;DHT22;2752;49.992;8.422;2023-05-23T09:33:07;18.30;1.00
5459;DHT22;2752;49.992;8.422;2023-05-23T09:35:33;18.40;1.00
5459;DHT22;2752;49.992;8.422;2023-05-23T09:38:00;18.40;1.00
5459;DHT22;2752;49.992;8.422;2023-05-23T09:40:30;18.40;1.00
5459;DHT22;2752;49.992;8.422;2023-05-23T09:43:01;18.50;1.00
5459;DHT22;2752;49.992;8.422;2023-05-23T09:45:29;18.60;1.00
5459;DHT22;2752;49.992;8.422;2023-05-23T09:47:58;18.70;1.00
5459;DHT22;2752;49.992;8.422;2023-05-23T09:50:30;18.70;1.00
5459;DHT22;2752;49.992;8.422;2023-05-23T09:52:57;19.00;1.00
5459;DHT22;2752;49.992;8.422;2023-05-23T09:55:24;19.20;1.00
5459;DHT22;2752;49.992;8.422;2023-05-23T09:57:53;19.40;1.00
5459;DHT22;2752;49.992;8.422;2023-05-23T10:00:22;19.80;1.00
5459;DHT22;2752;49.992;8.422;2023-05-23T10:02:54;20.00;1.00
5459;DHT22;2752;49.992;8.422;2023-05-23T10:05:37;20.00;1.00
5459;DHT22;2752;49.992;8.422;2023-05-23T10:08:07;20.00;1.00
5459;DHT22;2752;49.992;8.422;2023-05-23T10:13:34;19.70;1.00
5459;DHT22;2752;49.992;8.422;2023-05-23T10:16:04;19.50;1.00
5459;DHT22;2752;49.992;8.422;2023-05-23T10:18:36;19.40;1.00
5459;DHT22;2752;49.992;8.422;2023-05-23T10:21:10;19.30;1.00
5459;DHT22;2752;49.992;8.422;2023-05-23T10:23:37;19.30;1.00
5459;DHT22;2752;49.992;8.422;2023-05-23T10:26:05;19.30;1.00
5459;DHT22;2752;49.992;8.422;2023-05-23T10:28:32;19.20;1.00
5459;DHT22;2752;49.992;8.422;2023-05-23T10:30:59;19.10;1.00
5459;DHT22;2752;49.992;8.422;2023-05-23T10:33:26;19.20;1.00
5459;DHT22;2752;49.992;8.422;2023-05-23T10:35:58;19.30;1.00
5459;DHT22;2752;49.992;8.422;2023-05-23T10:38:35;19.50;1.00
5459;DHT22;2752;49.992;8.422;2023-05-23T10:41:08;19.50;1.00
5459;DHT22;2752;49.992;8.422;2023-05-23T10:43:41;19.40;1.00
5459;DHT22;2752;49.992;8.422;2023-05-23T10:46:11;19.40;1.00
5459;DHT22;2752;49.992;8.422;2023-05-23T10:48:41;19.30;1.00
5459;DHT22;2752;49.992;8.422;2023-05-23T10:51:09;19.40;1.00
5459;DHT22;2752;49.992;8.422;2023-05-23T10:53:39;19.20;1.00
5459;DHT22;2752;49.992;8.422;2023-05-23T10:56:07;19.10;1.00
5459;DHT22;2752;49.992;8.422;2023-05-23T10:58:35;18.90;1.00
5459;DHT22;2752;49.992;8.422;2023-05-23T11:01:04;18.90;1.00
5459;DHT22;2752;49.992;8.422;2023-05-23T11:03:33;18.90;1.00
5459;DHT22;2752;49.992;8.422;2023-05-23T11:06:00;19.00;1.00
5459;DHT22;2752;49.992;8.422;2023-05-23T11:08:27;18.90;1.00
5459;DHT22;2752;49.992;8.422;2023-05-23T11:10:58;19.00;1.00
5459;DHT22;2752;49.992;8.422;2023-05-23T11:13:55;18.90;1.00
5459;DHT22;2752;49.992;8.422;2023-05-23T11:16:25;18.70;1.00
5459;DHT22;2752;49.992;8.422;2023-05-23T11:19:20;18.70;1.00
5459;DHT22;2752;49.992;8.422;2023-05-23T11:21:50;18.60;1.00
5459;DHT22;2752;49.992;8.422;2023-05-23T11:24:17;18.80;1.00
5459;DHT22;2752;49.992;8.422;2023-05-23T11:26:52;18.90;1.00
5459;DHT22;2752;49.992;8.422;2023-05-23T11:29:21;19.10;1.00
5459;DHT22;2752;49.992;8.422;2023-05-23T11:31:48;19.10;1.00
5459;DHT22;2752;49.992;8.422;2023-05-23T11:34:15;19.10;1.00
5459;DHT22;2752;49.992;8.422;2023-05-23T11:36:43;19.10;1.00
5459;DHT22;2752;49.992;8.422;2023-05-23T11:39:12;19.20;1.00
5459;DHT22;2752;49.992;8.422;2023-05-23T11:41:40;19.40;1.00
5459;DHT22;2752;49.992;8.422;2023-05-23T11:44:12;19.60;1.00
5459;DHT22;2752;49.992;8.422;2023-05-23T11:46:39;19.70;1.00
5459;DHT22;2752;49.992;8.422;2023-05-23T11:49:12;19.60;1.00
5459;DHT22;2752;49.992;8.422;2023-05-23T11:51:38;19.50;1.00
5459;DHT22;2752;49.992;8.422;2023-05-23T11:54:05;19.40;1.00
5459;DHT22;2752;49.992;8.422;2023-05-23T11:56:38;19.40;1.00
5459;DHT22;2752;49.992;8.422;2023-05-23T11:59:05;19.40;1.00
5459;DHT22;2752;49.992;8.422;2023-05-23T12:01:36;19.50;1.00
5459;DHT22;2752;49.992;8.422;2023-05-23T12:04:09;19.50;1.00
5459;DHT22;2752;49.992;8.422;2023-05-23T12:06:38;19.50;1.00
5459;DHT22;2752;49.992;8.422;2023-05-23T12:09:06;19.70;1.00
5459;DHT22;2752;49.992;8.422;2023-05-23T12:11:34;19.90;1.00
5459;DHT22;2752;49.992;8.422;2023-05-23T12:14:01;19.80;1.00
5459;DHT22;2752;49.992;8.422;2023-05-23T12:16:31;19.60;1.00
5459;DHT22;2752;49.992;8.422;2023-05-23T12:18:59;19.50;1.00
5459;DHT22;2752;49.992;8.422;2023-05-23T12:21:38;19.60;1.00
5459;DHT22;2752;49.992;8.422;2023-05-23T12:24:14;19.70;1.00
5459;DHT22;2752;49.992;8.422;2023-05-23T12:26:49;20.00;1.00
5459;DHT22;2752;49.992;8.422;2023-05-23T12:29:18;19.90;1.00
5459;DHT22;2752;49.992;8.422;2023-05-23T12:31:48;20.00;1.00
5459;DHT22;2752;49.992;8.422;2023-05-23T12:34:18;20.00;1.00
5459;DHT22;2752;49.992;8.422;2023-05-23T12:36:45;20.00;1.00
5459;DHT22;2752;49.992;8.422;2023-05-23T12:39:14;19.90;1.00
5459;DHT22;2752;49.992;8.422;2023-05-23T12:41:41;19.70;1.00
5459;DHT22;2752;49.992;8.422;2023-05-23T12:44:08;19.80;1.00
5459;DHT22;2752;49.992;8.422;2023-05-23T12:46:35;20.00;1.00
5459;DHT22;2752;49.992;8.422;2023-05-23T12:49:03;20.10;1.00
5459;DHT22;2752;49.992;8.422;2023-05-23T12:51:31;20.30;1.00
5459;DHT22;2752;49.992;8.422;2023-05-23T12:53:58;20.40;1.00
5459;DHT22;2752;49.992;8.422;2023-05-23T12:56:25;20.40;1.00
5459;DHT22;2752;49.992;8.422;2023-05-23T12:58:52;20.20;1.00
5459;DHT22;2752;49.992;8.422;2023-05-23T13:01:19;20.40;1.00
5459;DHT22;2752;49.992;8.422;2023-05-23T13:03:46;20.40;1.00
5459;DHT22;2752;49.992;8.422;2023-05-23T13:06:13;20.50;1.00
5459;DHT22;2752;49.992;8.422;2023-05-23T13:08:41;20.50;1.00
5459;DHT22;2752;49.992;8.422;2023-05-23T13:11:08;20.50;1.00
5459;DHT22;2752;49.992;8.422;2023-05-23T13:13:35;20.40;1.00
5459;DHT22;2752;49.992;8.422;2023-05-23T13:16:01;20.20;1.00
5459;DHT22;2752;49.992;8.422;2023-05-23T13:18:28;20.20;1.00
5459;DHT22;2752;49.992;8.422;2023-05-23T13:20:55;19.90;1.00
5459;DHT22;2752;49.992;8.422;2023-05-23T13:23:21;19.80;1.00
5459;DHT22;2752;49.992;8.422;2023-05-23T13:25:51;19.70;1.00
5459;DHT22;2752;49.992;8.422;2023-05-23T13:28:18;19.80;1.00
5459;DHT22;2752;49.992;8.422;2023-05-23T13:30:45;19.80;1.00
5459;DHT22;2752;49.992;8.422;2023-05-23T13:33:11;19.70;1.00
5459;DHT22;2752;49.992;8.422;2023-05-23T13:35:38;19.60;1.00
5459;DHT22;2752;49.992;8.422;2023-05-23T13:38:04;19.90;1.00
5459;DHT22;2752;49.992;8.422;2023-05-23T13:40:31;20.00;1.00
5459;DHT22;2752;49.992;8.422;2023-05-23T13:42:59;19.90;1.00
5459;DHT22;2752;49.992;8.422;2023-05-23T13:45:26;19.80;1.00
5459;DHT22;2752;49.992;8.422;2023-05-23T13:47:54;19.90;1.00
5459;DHT22;2752;49.992;8.422;2023-05-23T13:50:21;19.70;1.00
5459;DHT22;2752;49.992;8.422;2023-05-23T13:52:47;19.60;1.00
5459;DHT22;2752;49.992;8.422;2023-05-23T13:55:14;19.60;1.00
5459;DHT22;2752;49.992;8.422;2023-05-23T13:57:41;19.50;1.00
5459;DHT22;2752;49.992;8.422;2023-05-23T14:00:11;19.50;1.00
5459;DHT22;2752;49.992;8.422;2023-05-23T14:02:37;19.40;1.00
5459;DHT22;2752;49.992;8.422;2023-05-23T14:05:05;19.30;1.00
5459;DHT22;2752;49.992;8.422;2023-05-23T14:07:32;19.30;1.00
5459;DHT22;2752;49.992;8.422;2023-05-23T14:09:59;19.20;1.00
5459;DHT22;2752;49.992;8.422;2023-05-23T14:12:26;19.10;1.00
5459;DHT22;2752;49.992;8.422;2023-05-23T14:14:52;19.20;1.00
5459;DHT22;2752;49.992;8.422;2023-05-23T14:17:20;19.20;1.00
5459;DHT22;2752;49.992;8.422;2023-05-23T14:19:47;19.10;1.00
5459;DHT22;2752;49.992;8.422;2023-05-23T14:22:14;19.10;1.00
5459;DHT22;2752;49.992;8.422;2023-05-23T14:24:40;19.10;1.00
5459;DHT22;2752;49.992;8.422;2023-05-23T14:27:07;19.10;1.00
5459;DHT22;2752;49.992;8.422;2023-05-23T14:29:34;19.10;1.00
5459;DHT22;2752;49.992;8.422;2023-05-23T14:32:00;19.10;1.00
5459;DHT22;2752;49.992;8.422;2023-05-23T14:34:29;19.20;1.00
5459;DHT22;2752;49.992;8.422;2023-05-23T14:36:56;19.20;1.00
5459;DHT22;2752;49.992;8.422;2023-05-23T14:39:23;19.00;1.00
5459;DHT22;2752;49.992;8.422;2023-05-23T14:41:50;18.90;1.00
5459;DHT22;2752;49.992;8.422;2023-05-23T14:44:17;18.70;1.00
5459;DHT22;2752;49.992;8.422;2023-05-23T14:46:43;18.60;1.00
5459;DHT22;2752;49.992;8.422;2023-05-23T14:49:13;18.40;1.00
5459;DHT22;2752;49.992;8.422;2023-05-23T14:51:41;18.30;1.00
5459;DHT22;2752;49.992;8.422;2023-05-23T14:54:08;18.20;1.00
5459;DHT22;2752;49.992;8.422;2023-05-23T14:56:35;18.10;1.00
5459;DHT22;2752;49.992;8.422;2023-05-23T14:59:02;18.20;1.00
5459;DHT22;2752;49.992;8.422;2023-05-23T15:01:28;18.20;1.00
5459;DHT22;2752;49.992;8.422;2023-05-23T15:03:55;17.90;1.00
5459;DHT22;2752;49.992;8.422;2023-05-23T15:06:22;17.90;1.00
5459;DHT22;2752;49.992;8.422;2023-05-23T15:08:50;17.90;1.00
5459;DHT22;2752;49.992;8.422;2023-05-23T15:11:17;18.10;1.00
5459;DHT22;2752;49.992;8.422;2023-05-23T15:13:43;18.10;1.00
5459;DHT22;2752;49.992;8.422;2023-05-23T15:16:10;18.10;1.00
5459;DHT22;2752;49.992;8.422;2023-05-23T15:18:37;18.20;1.00
5459;DHT22;2752;49.992;8.422;2023-05-23T15:21:05;18.20;1.00
5459;DHT22;2752;49.992;8.422;2023-05-23T15:23:33;18.10;1.00
5459;DHT22;2752;49.992;8.422;2023-05-23T15:26:01;18.10;1.00
5459;DHT22;2752;49.992;8.422;2023-05-23T15:28:28;18.20;1.00
5459;DHT22;2752;49.992;8.422;2023-05-23T15:30:54;18.30;1.00
5459;DHT22;2752;49.992;8.422;2023-05-23T15:33:23;18.30;1.00
5459;DHT22;2752;49.992;8.422;2023-05-23T15:35:50;18.30;1.00
5459;DHT22;2752;49.992;8.422;2023-05-23T15:38:17;18.40;1.00
5459;DHT22;2752;49.992;8.422;2023-05-23T15:40:44;18.40;1.00
5459;DHT22;2752;49.992;8.422;2023-05-23T15:43:14;18.20;1.00
5459;DHT22;2752;49.992;8.422;2023-05-23T15:45:41;18.20;1.00
5459;DHT22;2752;49.992;8.422;2023-05-23T15:48:07;18.20;1.00
5459;DHT22;2752;49.992;8.422;2023-05-23T15:50:34;18.20;1.00
5459;DHT22;2752;49.992;8.422;2023-05-23T15:53:01;18.40;1.00
5459;DHT22;2752;49.992;8.422;2023-05-23T15:55:27;18.50;1.00
5459;DHT22;2752;49.992;8.422;2023-05-23T15:57:54;18.50;1.00
5459;DHT22;2752;49.992;8.422;2023-05-23T16:00:22;18.60;1.00
5459;DHT22;2752;49.992;8.422;2023-05-23T16:02:49;18.50;1.00
5459;DHT22;2752;49.992;8.422;2023-05-23T16:05:15;18.40;1.00
5459;DHT22;2752;49.992;8.422;2023-05-23T16:07:43;18.30;1.00
5459;DHT22;2752;49.992;8.422;2023-05-23T16:10:10;18.30;1.00
5459;DHT22;2752;49.992;8.422;2023-05-23T16:12:38;18.20;1.00
5459;DHT22;2752;49.992;8.422;2023-05-23T16:15:05;18.20;1.00
5459;DHT22;2752;49.992;8.422;2023-05-23T16:17:33;18.20;1.00
5459;DHT22;2752;49.992;8.422;2023-05-23T16:19:59;18.30;1.00
5459;DHT22;2752;49.992;8.422;2023-05-23T16:22:27;18.00;1.00
5459;DHT22;2752;49.992;8.422;2023-05-23T16:24:54;17.90;1.00